sensor_id;sensor_type;location;lat;lon;timestamp;P1;durP1;ratioP1;P2;durP2;ratioP2
3447;SDS011;1738;49.500;17.736;2022-09-17T00:00:42;10.63;;;8.47;;
3447;SDS011;1738;49.500;17.736;2022-09-17T00:03:08;10.10;;;8.10;;
3447;SDS011;1738;49.500;17.736;2022-09-17T00:05:34;12.70;;;8.60;;
3447;SDS011;1738;49.500;17.736;2022-09-17T00:08:00;9.60;;;8.60;;
3447;SDS011;1738;49.500;17.736;2022-09-17T00:10:26;13.63;;;8.40;;
3447;SDS011;1738;49.500;17.736;2022-09-17T00:12:51;8.60;;;7.23;;
3447;SDS011;1738;49.500;17.736;2022-09-17T00:15:17;11.43;;;8.73;;
3447;SDS011;1738;49.500;17.736;2022-09-17T00:17:43;9.80;;;7.80;;
3447;SDS011;1738;49.500;17.736;2022-09-17T00:20:09;10.60;;;7.67;;
3447;SDS011;1738;49.500;17.736;2022-09-17T00:22:35;10.37;;;7.50;;
3447;SDS011;1738;49.500;17.736;2022-09-17T00:25:01;9.20;;;7.05;;
3447;SDS011;1738;49.500;17.736;2022-09-17T00:27:27;9.83;;;6.73;;
3447;SDS011;1738;49.500;17.736;2022-09-17T00:29:52;10.13;;;7.10;;
3447;SDS011;1738;49.500;17.736;2022-09-17T00:32:18;10.17;;;6.53;;
3447;SDS011;1738;49.500;17.736;2022-09-17T00:34:44;16.70;;;8.27;;
3447;SDS011;1738;49.500;17.736;2022-09-17T00:37:10;8.63;;;6.87;;
3447;SDS011;1738;49.500;17.736;2022-09-17T00:39:36;12.73;;;9.57;;
3447;SDS011;1738;49.500;17.736;2022-09-17T00:42:02;9.77;;;7.63;;
3447;SDS011;1738;49.500;17.736;2022-09-17T00:46:59;12.27;;;6.70;;
3447;SDS011;1738;49.500;17.736;2022-09-17T00:49:27;7.30;;;6.20;;
3447;SDS011;1738;49.500;17.736;2022-09-17T00:51:56;8.38;;;6.68;;
3447;SDS011;1738;49.500;17.736;2022-09-17T00:54:20;9.90;;;6.20;;
3447;SDS011;1738;49.500;17.736;2022-09-17T00:56:46;12.68;;;6.03;;
3447;SDS011;1738;49.500;17.736;2022-09-17T00:59:12;8.23;;;6.90;;
3447;SDS011;1738;49.500;17.736;2022-09-17T01:01:37;8.87;;;5.90;;
3447;SDS011;1738;49.500;17.736;2022-09-17T01:04:03;8.88;;;6.95;;
3447;SDS011;1738;49.500;17.736;2022-09-17T01:06:36;11.17;;;6.70;;
3447;SDS011;1738;49.500;17.736;2022-09-17T01:09:05;9.67;;;6.20;;
3447;SDS011;1738;49.500;17.736;2022-09-17T01:11:34;7.40;;;5.50;;
3447;SDS011;1738;49.500;17.736;2022-09-17T01:16:35;10.40;;;7.17;;
3447;SDS011;1738;49.500;17.736;2022-09-17T01:19:05;6.97;;;5.80;;
3447;SDS011;1738;49.500;17.736;2022-09-17T01:27:13;11.70;;;6.90;;
3447;SDS011;1738;49.500;17.736;2022-09-17T01:29:54;9.27;;;6.70;;
3447;SDS011;1738;49.500;17.736;2022-09-17T01:31:58;8.60;;;6.60;;
3447;SDS011;1738;49.500;17.736;2022-09-17T01:34:27;8.07;;;6.90;;
3447;SDS011;1738;49.500;17.736;2022-09-17T01:36:55;9.23;;;6.57;;
3447;SDS011;1738;49.500;17.736;2022-09-17T01:39:20;9.63;;;7.03;;
3447;SDS011;1738;49.500;17.736;2022-09-17T01:41:50;10.27;;;7.47;;
3447;SDS011;1738;49.500;17.736;2022-09-17T01:44:16;8.73;;;6.57;;
3447;SDS011;1738;49.500;17.736;2022-09-17T01:46:44;10.27;;;6.50;;
3447;SDS011;1738;49.500;17.736;2022-09-17T01:49:08;9.60;;;7.00;;
3447;SDS011;1738;49.500;17.736;2022-09-17T01:51:36;10.13;;;8.40;;
3447;SDS011;1738;49.500;17.736;2022-09-17T01:54:03;8.10;;;6.40;;
3447;SDS011;1738;49.500;17.736;2022-09-17T01:56:35;11.30;;;6.87;;
3447;SDS011;1738;49.500;17.736;2022-09-17T01:59:06;10.83;;;7.10;;
3447;SDS011;1738;49.500;17.736;2022-09-17T02:01:30;9.60;;;8.17;;
3447;SDS011;1738;49.500;17.736;2022-09-17T02:03:58;9.60;;;6.40;;
3447;SDS011;1738;49.500;17.736;2022-09-17T02:06:23;10.17;;;7.00;;
3447;SDS011;1738;49.500;17.736;2022-09-17T02:08:49;10.90;;;6.77;;
3447;SDS011;1738;49.500;17.736;2022-09-17T02:11:13;11.00;;;7.17;;
3447;SDS011;1738;49.500;17.736;2022-09-17T02:13:42;12.00;;;7.20;;
3447;SDS011;1738;49.500;17.736;2022-09-17T02:16:08;7.93;;;6.00;;
3447;SDS011;1738;49.500;17.736;2022-09-17T02:18:36;9.33;;;6.63;;
3447;SDS011;1738;49.500;17.736;2022-09-17T02:21:05;8.03;;;6.30;;
3447;SDS011;1738;49.500;17.736;2022-09-17T02:23:28;12.37;;;7.23;;
3447;SDS011;1738;49.500;17.736;2022-09-17T02:25:56;9.90;;;6.87;;
3447;SDS011;1738;49.500;17.736;2022-09-17T02:28:32;8.50;;;6.33;;
3447;SDS011;1738;49.500;17.736;2022-09-17T02:30:56;9.70;;;6.60;;
3447;SDS011;1738;49.500;17.736;2022-09-17T02:33:22;8.85;;;6.47;;
3447;SDS011;1738;49.500;17.736;2022-09-17T02:35:48;7.75;;;6.05;;
3447;SDS011;1738;49.500;17.736;2022-09-17T02:38:20;8.37;;;5.60;;
3447;SDS011;1738;49.500;17.736;2022-09-17T02:40:44;7.70;;;6.17;;
3447;SDS011;1738;49.500;17.736;2022-09-17T02:43:09;8.80;;;6.37;;
3447;SDS011;1738;49.500;17.736;2022-09-17T02:48:19;8.70;;;5.83;;
3447;SDS011;1738;49.500;17.736;2022-09-17T02:53:33;8.60;;;6.53;;
3447;SDS011;1738;49.500;17.736;2022-09-17T02:56:01;12.50;;;7.00;;
3447;SDS011;1738;49.500;17.736;2022-09-17T02:58:30;9.13;;;6.10;;
3447;SDS011;1738;49.500;17.736;2022-09-17T03:00:53;9.73;;;6.70;;
3447;SDS011;1738;49.500;17.736;2022-09-17T03:03:20;7.50;;;5.50;;
3447;SDS011;1738;49.500;17.736;2022-09-17T03:05:45;10.10;;;6.87;;
3447;SDS011;1738;49.500;17.736;2022-09-17T03:08:12;10.77;;;7.00;;
3447;SDS011;1738;49.500;17.736;2022-09-17T03:10:37;8.20;;;6.20;;
3447;SDS011;1738;49.500;17.736;2022-09-17T03:13:03;11.23;;;7.83;;
3447;SDS011;1738;49.500;17.736;2022-09-17T03:15:29;12.33;;;7.07;;
3447;SDS011;1738;49.500;17.736;2022-09-17T03:17:55;9.90;;;7.43;;
3447;SDS011;1738;49.500;17.736;2022-09-17T03:20:20;9.07;;;7.03;;
3447;SDS011;1738;49.500;17.736;2022-09-17T03:22:46;10.77;;;6.30;;
3447;SDS011;1738;49.500;17.736;2022-09-17T03:25:12;9.07;;;6.57;;
3447;SDS011;1738;49.500;17.736;2022-09-17T03:27:38;8.10;;;6.40;;
3447;SDS011;1738;49.500;17.736;2022-09-17T03:30:04;8.87;;;6.60;;
3447;SDS011;1738;49.500;17.736;2022-09-17T03:32:30;10.80;;;6.43;;
3447;SDS011;1738;49.500;17.736;2022-09-17T03:34:56;8.57;;;6.15;;
3447;SDS011;1738;49.500;17.736;2022-09-17T03:37:22;8.00;;;5.73;;
3447;SDS011;1738;49.500;17.736;2022-09-17T03:39:48;7.87;;;5.82;;
3447;SDS011;1738;49.500;17.736;2022-09-17T03:42:14;12.20;;;7.67;;
3447;SDS011;1738;49.500;17.736;2022-09-17T03:44:40;10.33;;;6.23;;
3447;SDS011;1738;49.500;17.736;2022-09-17T03:47:06;15.87;;;6.93;;
3447;SDS011;1738;49.500;17.736;2022-09-17T03:49:32;10.43;;;6.50;;
3447;SDS011;1738;49.500;17.736;2022-09-17T03:51:58;9.30;;;7.10;;
3447;SDS011;1738;49.500;17.736;2022-09-17T03:54:23;9.97;;;7.53;;
3447;SDS011;1738;49.500;17.736;2022-09-17T03:56:49;12.97;;;7.87;;
3447;SDS011;1738;49.500;17.736;2022-09-17T03:59:15;13.80;;;8.30;;
3447;SDS011;1738;49.500;17.736;2022-09-17T04:01:41;10.57;;;6.73;;
3447;SDS011;1738;49.500;17.736;2022-09-17T04:04:07;11.33;;;7.83;;
3447;SDS011;1738;49.500;17.736;2022-09-17T04:06:33;14.67;;;8.67;;
3447;SDS011;1738;49.500;17.736;2022-09-17T04:08:58;14.33;;;9.17;;
3447;SDS011;1738;49.500;17.736;2022-09-17T04:11:24;10.50;;;8.53;;
3447;SDS011;1738;49.500;17.736;2022-09-17T04:13:50;12.80;;;8.77;;
3447;SDS011;1738;49.500;17.736;2022-09-17T04:16:16;13.40;;;8.30;;
3447;SDS011;1738;49.500;17.736;2022-09-17T04:18:42;10.73;;;7.60;;
3447;SDS011;1738;49.500;17.736;2022-09-17T04:21:08;14.50;;;7.55;;
3447;SDS011;1738;49.500;17.736;2022-09-17T04:23:34;15.33;;;8.13;;
3447;SDS011;1738;49.500;17.736;2022-09-17T04:25:59;11.80;;;8.57;;
3447;SDS011;1738;49.500;17.736;2022-09-17T04:28:25;11.20;;;7.63;;
3447;SDS011;1738;49.500;17.736;2022-09-17T04:30:51;14.13;;;7.97;;
3447;SDS011;1738;49.500;17.736;2022-09-17T04:33:17;10.15;;;8.05;;
3447;SDS011;1738;49.500;17.736;2022-09-17T04:35:43;11.67;;;7.70;;
3447;SDS011;1738;49.500;17.736;2022-09-17T04:38:09;13.77;;;8.30;;
3447;SDS011;1738;49.500;17.736;2022-09-17T04:40:34;11.93;;;7.13;;
3447;SDS011;1738;49.500;17.736;2022-09-17T04:43:00;13.17;;;8.03;;
3447;SDS011;1738;49.500;17.736;2022-09-17T04:45:26;15.77;;;10.63;;
3447;SDS011;1738;49.500;17.736;2022-09-17T04:47:52;11.02;;;7.78;;
3447;SDS011;1738;49.500;17.736;2022-09-17T04:50:18;11.97;;;9.10;;
3447;SDS011;1738;49.500;17.736;2022-09-17T04:52:44;19.17;;;8.68;;
3447;SDS011;1738;49.500;17.736;2022-09-17T04:55:10;15.40;;;9.57;;
3447;SDS011;1738;49.500;17.736;2022-09-17T04:57:35;13.43;;;8.30;;
3447;SDS011;1738;49.500;17.736;2022-09-17T05:00:02;17.10;;;8.70;;
3447;SDS011;1738;49.500;17.736;2022-09-17T05:02:28;13.10;;;8.40;;
3447;SDS011;1738;49.500;17.736;2022-09-17T05:04:54;14.53;;;8.00;;
3447;SDS011;1738;49.500;17.736;2022-09-17T05:07:20;14.67;;;8.83;;
3447;SDS011;1738;49.500;17.736;2022-09-17T05:09:45;12.07;;;8.97;;
3447;SDS011;1738;49.500;17.736;2022-09-17T05:12:11;15.83;;;8.83;;
3447;SDS011;1738;49.500;17.736;2022-09-17T05:14:37;12.67;;;8.23;;
3447;SDS011;1738;49.500;17.736;2022-09-17T05:17:03;13.70;;;9.00;;
3447;SDS011;1738;49.500;17.736;2022-09-17T05:19:29;26.27;;;9.63;;
3447;SDS011;1738;49.500;17.736;2022-09-17T05:21:55;20.47;;;9.97;;
3447;SDS011;1738;49.500;17.736;2022-09-17T05:24:20;16.00;;;8.37;;
3447;SDS011;1738;49.500;17.736;2022-09-17T05:26:46;14.60;;;9.30;;
3447;SDS011;1738;49.500;17.736;2022-09-17T05:29:12;15.77;;;9.85;;
3447;SDS011;1738;49.500;17.736;2022-09-17T05:31:38;20.23;;;9.40;;
3447;SDS011;1738;49.500;17.736;2022-09-17T05:34:04;17.33;;;10.23;;
3447;SDS011;1738;49.500;17.736;2022-09-17T05:36:30;20.83;;;10.50;;
3447;SDS011;1738;49.500;17.736;2022-09-17T05:38:55;20.00;;;9.37;;
3447;SDS011;1738;49.500;17.736;2022-09-17T05:41:21;15.90;;;10.20;;
3447;SDS011;1738;49.500;17.736;2022-09-17T05:43:47;14.57;;;9.90;;
3447;SDS011;1738;49.500;17.736;2022-09-17T05:46:13;27.43;;;11.50;;
3447;SDS011;1738;49.500;17.736;2022-09-17T05:48:39;44.88;;;15.38;;
3447;SDS011;1738;49.500;17.736;2022-09-17T05:51:05;162.80;;;36.20;;
3447;SDS011;1738;49.500;17.736;2022-09-17T05:53:31;123.10;;;27.52;;
3447;SDS011;1738;49.500;17.736;2022-09-17T05:55:57;26.60;;;11.60;;
3447;SDS011;1738;49.500;17.736;2022-09-17T05:58:23;22.47;;;11.53;;
3447;SDS011;1738;49.500;17.736;2022-09-17T06:00:49;15.40;;;10.60;;
3447;SDS011;1738;49.500;17.736;2022-09-17T06:03:17;21.73;;;11.90;;
3447;SDS011;1738;49.500;17.736;2022-09-17T06:05:43;20.07;;;12.90;;
3447;SDS011;1738;49.500;17.736;2022-09-17T06:08:08;21.67;;;12.77;;
3447;SDS011;1738;49.500;17.736;2022-09-17T06:10:35;22.15;;;12.18;;
3447;SDS011;1738;49.500;17.736;2022-09-17T06:13:01;21.40;;;11.80;;
3447;SDS011;1738;49.500;17.736;2022-09-17T06:15:27;19.97;;;11.77;;
3447;SDS011;1738;49.500;17.736;2022-09-17T06:17:53;22.97;;;11.90;;
3447;SDS011;1738;49.500;17.736;2022-09-17T06:20:18;20.37;;;12.57;;
3447;SDS011;1738;49.500;17.736;2022-09-17T06:22:44;22.47;;;11.93;;
3447;SDS011;1738;49.500;17.736;2022-09-17T06:25:10;23.30;;;12.83;;
3447;SDS011;1738;49.500;17.736;2022-09-17T06:27:36;32.23;;;12.47;;
3447;SDS011;1738;49.500;17.736;2022-09-17T06:30:02;23.23;;;13.60;;
3447;SDS011;1738;49.500;17.736;2022-09-17T06:32:28;30.27;;;13.43;;
3447;SDS011;1738;49.500;17.736;2022-09-17T06:34:54;25.90;;;14.43;;
3447;SDS011;1738;49.500;17.736;2022-09-17T06:37:26;24.57;;;14.93;;
3447;SDS011;1738;49.500;17.736;2022-09-17T06:39:46;32.57;;;13.80;;
3447;SDS011;1738;49.500;17.736;2022-09-17T06:42:12;26.80;;;13.73;;
3447;SDS011;1738;49.500;17.736;2022-09-17T06:44:38;25.10;;;13.77;;
3447;SDS011;1738;49.500;17.736;2022-09-17T06:47:04;30.73;;;15.93;;
3447;SDS011;1738;49.500;17.736;2022-09-17T06:49:29;28.00;;;16.30;;
3447;SDS011;1738;49.500;17.736;2022-09-17T06:51:55;25.77;;;15.20;;
3447;SDS011;1738;49.500;17.736;2022-09-17T06:54:21;25.80;;;14.57;;
3447;SDS011;1738;49.500;17.736;2022-09-17T06:56:47;34.85;;;14.55;;
3447;SDS011;1738;49.500;17.736;2022-09-17T06:59:13;28.90;;;14.50;;
3447;SDS011;1738;49.500;17.736;2022-09-17T07:01:39;24.87;;;14.60;;
3447;SDS011;1738;49.500;17.736;2022-09-17T07:04:05;22.30;;;14.70;;
3447;SDS011;1738;49.500;17.736;2022-09-17T07:06:30;24.83;;;15.00;;
3447;SDS011;1738;49.500;17.736;2022-09-17T07:08:57;26.70;;;15.70;;
3447;SDS011;1738;49.500;17.736;2022-09-17T07:11:22;21.70;;;14.40;;
3447;SDS011;1738;49.500;17.736;2022-09-17T07:13:48;23.90;;;14.23;;
3447;SDS011;1738;49.500;17.736;2022-09-17T07:16:14;19.37;;;14.40;;
3447;SDS011;1738;49.500;17.736;2022-09-17T07:18:40;30.10;;;13.40;;
3447;SDS011;1738;49.500;17.736;2022-09-17T07:21:06;19.83;;;12.20;;
3447;SDS011;1738;49.500;17.736;2022-09-17T07:23:32;20.20;;;12.10;;
3447;SDS011;1738;49.500;17.736;2022-09-17T07:25:59;20.90;;;13.20;;
3447;SDS011;1738;49.500;17.736;2022-09-17T07:28:24;15.00;;;12.37;;
3447;SDS011;1738;49.500;17.736;2022-09-17T07:30:49;17.27;;;11.83;;
3447;SDS011;1738;49.500;17.736;2022-09-17T07:33:15;12.93;;;11.47;;
3447;SDS011;1738;49.500;17.736;2022-09-17T07:35:41;18.10;;;10.63;;
3447;SDS011;1738;49.500;17.736;2022-09-17T07:38:06;13.40;;;10.60;;
3447;SDS011;1738;49.500;17.736;2022-09-17T07:40:32;11.30;;;8.90;;
3447;SDS011;1738;49.500;17.736;2022-09-17T07:42:58;11.90;;;9.18;;
3447;SDS011;1738;49.500;17.736;2022-09-17T07:45:24;11.73;;;9.47;;
3447;SDS011;1738;49.500;17.736;2022-09-17T07:47:50;10.87;;;9.00;;
3447;SDS011;1738;49.500;17.736;2022-09-17T07:50:16;10.80;;;8.75;;
3447;SDS011;1738;49.500;17.736;2022-09-17T07:52:45;9.27;;;8.23;;
3447;SDS011;1738;49.500;17.736;2022-09-17T07:55:10;16.58;;;8.85;;
3447;SDS011;1738;49.500;17.736;2022-09-17T07:57:37;15.52;;;8.45;;
3447;SDS011;1738;49.500;17.736;2022-09-17T08:00:03;12.27;;;9.20;;
3447;SDS011;1738;49.500;17.736;2022-09-17T08:02:29;10.17;;;6.70;;
3447;SDS011;1738;49.500;17.736;2022-09-17T08:04:55;9.93;;;6.47;;
3447;SDS011;1738;49.500;17.736;2022-09-17T08:07:20;9.33;;;7.20;;
3447;SDS011;1738;49.500;17.736;2022-09-17T08:09:46;7.73;;;6.70;;
3447;SDS011;1738;49.500;17.736;2022-09-17T08:12:12;13.27;;;7.72;;
3447;SDS011;1738;49.500;17.736;2022-09-17T08:14:38;7.23;;;6.00;;
3447;SDS011;1738;49.500;17.736;2022-09-17T08:17:05;8.80;;;5.90;;
3447;SDS011;1738;49.500;17.736;2022-09-17T08:19:30;11.15;;;7.03;;
3447;SDS011;1738;49.500;17.736;2022-09-17T08:21:55;7.67;;;5.40;;
3447;SDS011;1738;49.500;17.736;2022-09-17T08:24:21;8.80;;;5.53;;
3447;SDS011;1738;49.500;17.736;2022-09-17T08:26:47;6.30;;;5.67;;
3447;SDS011;1738;49.500;17.736;2022-09-17T08:29:13;10.00;;;4.60;;
3447;SDS011;1738;49.500;17.736;2022-09-17T08:31:39;9.80;;;5.30;;
3447;SDS011;1738;49.500;17.736;2022-09-17T08:34:06;11.03;;;5.07;;
3447;SDS011;1738;49.500;17.736;2022-09-17T08:36:32;7.80;;;5.07;;
3447;SDS011;1738;49.500;17.736;2022-09-17T08:38:57;7.40;;;4.43;;
3447;SDS011;1738;49.500;17.736;2022-09-17T08:41:27;9.47;;;4.90;;
3447;SDS011;1738;49.500;17.736;2022-09-17T08:43:55;6.33;;;4.57;;
3447;SDS011;1738;49.500;17.736;2022-09-17T08:46:18;15.32;;;4.40;;
3447;SDS011;1738;49.500;17.736;2022-09-17T08:48:47;8.03;;;5.13;;
3447;SDS011;1738;49.500;17.736;2022-09-17T08:51:16;5.40;;;4.63;;
3447;SDS011;1738;49.500;17.736;2022-09-17T08:53:41;7.57;;;4.23;;
3447;SDS011;1738;49.500;17.736;2022-09-17T08:56:19;5.40;;;3.93;;
3447;SDS011;1738;49.500;17.736;2022-09-17T08:59:20;6.50;;;4.37;;
3447;SDS011;1738;49.500;17.736;2022-09-17T09:01:33;5.80;;;3.80;;
3447;SDS011;1738;49.500;17.736;2022-09-17T09:04:07;5.53;;;3.77;;
3447;SDS011;1738;49.500;17.736;2022-09-17T09:06:30;7.90;;;4.67;;
3447;SDS011;1738;49.500;17.736;2022-09-17T09:08:57;4.13;;;3.27;;
3447;SDS011;1738;49.500;17.736;2022-09-17T09:11:23;6.63;;;3.80;;
3447;SDS011;1738;49.500;17.736;2022-09-17T09:13:49;9.80;;;2.87;;
3447;SDS011;1738;49.500;17.736;2022-09-17T09:16:16;5.93;;;3.50;;
3447;SDS011;1738;49.500;17.736;2022-09-17T09:18:40;4.80;;;3.20;;
3447;SDS011;1738;49.500;17.736;2022-09-17T09:21:11;7.77;;;3.30;;
3447;SDS011;1738;49.500;17.736;2022-09-17T09:23:44;6.53;;;3.25;;
3447;SDS011;1738;49.500;17.736;2022-09-17T09:26:13;12.77;;;3.60;;
3447;SDS011;1738;49.500;17.736;2022-09-17T09:28:38;10.23;;;3.87;;
3447;SDS011;1738;49.500;17.736;2022-09-17T09:31:26;5.60;;;3.30;;
3447;SDS011;1738;49.500;17.736;2022-09-17T09:33:47;4.33;;;2.90;;
3447;SDS011;1738;49.500;17.736;2022-09-17T09:36:14;4.47;;;3.30;;
3447;SDS011;1738;49.500;17.736;2022-09-17T09:38:42;6.45;;;3.20;;
3447;SDS011;1738;49.500;17.736;2022-09-17T09:41:07;5.33;;;2.67;;
3447;SDS011;1738;49.500;17.736;2022-09-17T09:43:42;8.07;;;3.07;;
3447;SDS011;1738;49.500;17.736;2022-09-17T09:46:15;5.83;;;3.27;;
3447;SDS011;1738;49.500;17.736;2022-09-17T09:48:45;5.07;;;3.87;;
3447;SDS011;1738;49.500;17.736;2022-09-17T09:51:24;4.37;;;3.22;;
3447;SDS011;1738;49.500;17.736;2022-09-17T09:53:55;8.97;;;3.87;;
3447;SDS011;1738;49.500;17.736;2022-09-17T09:58:57;4.07;;;2.90;;
3447;SDS011;1738;49.500;17.736;2022-09-17T10:01:24;6.73;;;3.10;;
3447;SDS011;1738;49.500;17.736;2022-09-17T10:03:51;9.10;;;3.23;;
3447;SDS011;1738;49.500;17.736;2022-09-17T10:06:15;4.20;;;3.43;;
3447;SDS011;1738;49.500;17.736;2022-09-17T10:09:07;7.60;;;3.20;;
3447;SDS011;1738;49.500;17.736;2022-09-17T10:11:26;7.33;;;3.40;;
3447;SDS011;1738;49.500;17.736;2022-09-17T10:13:50;5.43;;;3.50;;
3447;SDS011;1738;49.500;17.736;2022-09-17T10:16:17;6.40;;;3.60;;
3447;SDS011;1738;49.500;17.736;2022-09-17T10:18:42;5.93;;;3.60;;
3447;SDS011;1738;49.500;17.736;2022-09-17T10:21:41;6.20;;;3.75;;
3447;SDS011;1738;49.500;17.736;2022-09-17T10:23:49;4.40;;;3.20;;
3447;SDS011;1738;49.500;17.736;2022-09-17T10:28:48;5.40;;;2.80;;
3447;SDS011;1738;49.500;17.736;2022-09-17T10:31:13;10.33;;;4.40;;
3447;SDS011;1738;49.500;17.736;2022-09-17T10:33:49;4.73;;;3.50;;
3447;SDS011;1738;49.500;17.736;2022-09-17T10:36:06;6.80;;;3.67;;
3447;SDS011;1738;49.500;17.736;2022-09-17T10:38:32;6.40;;;2.80;;
3447;SDS011;1738;49.500;17.736;2022-09-17T10:43:29;6.97;;;3.40;;
3447;SDS011;1738;49.500;17.736;2022-09-17T10:45:56;4.43;;;2.83;;
3447;SDS011;1738;49.500;17.736;2022-09-17T10:48:21;5.23;;;2.93;;
3447;SDS011;1738;49.500;17.736;2022-09-17T10:50:47;5.43;;;3.80;;
3447;SDS011;1738;49.500;17.736;2022-09-17T10:53:14;3.57;;;3.10;;
3447;SDS011;1738;49.500;17.736;2022-09-17T10:55:45;4.70;;;3.10;;
3447;SDS011;1738;49.500;17.736;2022-09-17T10:58:13;4.53;;;2.72;;
3447;SDS011;1738;49.500;17.736;2022-09-17T11:00:40;5.10;;;2.47;;
3447;SDS011;1738;49.500;17.736;2022-09-17T11:03:16;5.43;;;2.97;;
3447;SDS011;1738;49.500;17.736;2022-09-17T11:05:46;4.67;;;2.70;;
3447;SDS011;1738;49.500;17.736;2022-09-17T11:08:15;4.60;;;2.47;;
3447;SDS011;1738;49.500;17.736;2022-09-17T11:10:43;4.10;;;2.60;;
3447;SDS011;1738;49.500;17.736;2022-09-17T11:13:40;4.20;;;2.23;;
3447;SDS011;1738;49.500;17.736;2022-09-17T11:15:54;4.67;;;2.10;;
3447;SDS011;1738;49.500;17.736;2022-09-17T11:18:20;2.93;;;2.00;;
3447;SDS011;1738;49.500;17.736;2022-09-17T11:20:46;4.72;;;1.95;;
3447;SDS011;1738;49.500;17.736;2022-09-17T11:23:31;4.72;;;1.73;;
3447;SDS011;1738;49.500;17.736;2022-09-17T11:25:54;3.73;;;1.90;;
3447;SDS011;1738;49.500;17.736;2022-09-17T11:28:23;2.90;;;2.50;;
3447;SDS011;1738;49.500;17.736;2022-09-17T11:30:47;5.83;;;3.33;;
3447;SDS011;1738;49.500;17.736;2022-09-17T11:33:15;2.93;;;2.10;;
3447;SDS011;1738;49.500;17.736;2022-09-17T11:35:39;4.30;;;2.57;;
3447;SDS011;1738;49.500;17.736;2022-09-17T11:38:08;7.10;;;3.93;;
3447;SDS011;1738;49.500;17.736;2022-09-17T11:40:37;2.73;;;2.10;;
3447;SDS011;1738;49.500;17.736;2022-09-17T11:43:02;4.43;;;2.70;;
3447;SDS011;1738;49.500;17.736;2022-09-17T11:45:32;2.67;;;2.20;;
3447;SDS011;1738;49.500;17.736;2022-09-17T11:47:57;4.20;;;2.73;;
3447;SDS011;1738;49.500;17.736;2022-09-17T11:50:23;7.73;;;3.03;;
3447;SDS011;1738;49.500;17.736;2022-09-17T11:52:56;3.22;;;2.50;;
3447;SDS011;1738;49.500;17.736;2022-09-17T11:55:26;5.30;;;3.73;;
3447;SDS011;1738;49.500;17.736;2022-09-17T11:57:55;4.40;;;2.70;;
3447;SDS011;1738;49.500;17.736;2022-09-17T12:00:19;6.53;;;3.50;;
3447;SDS011;1738;49.500;17.736;2022-09-17T12:02:51;9.87;;;2.70;;
3447;SDS011;1738;49.500;17.736;2022-09-17T12:05:17;4.30;;;3.10;;
3447;SDS011;1738;49.500;17.736;2022-09-17T12:07:48;5.73;;;2.97;;
3447;SDS011;1738;49.500;17.736;2022-09-17T12:12:56;3.53;;;2.77;;
3447;SDS011;1738;49.500;17.736;2022-09-17T12:15:22;3.47;;;2.10;;
3447;SDS011;1738;49.500;17.736;2022-09-17T12:17:51;3.23;;;2.37;;
3447;SDS011;1738;49.500;17.736;2022-09-17T12:22:45;3.97;;;2.62;;
3447;SDS011;1738;49.500;17.736;2022-09-17T12:25:11;4.40;;;2.50;;
3447;SDS011;1738;49.500;17.736;2022-09-17T12:27:41;3.23;;;2.30;;
3447;SDS011;1738;49.500;17.736;2022-09-17T12:30:12;3.40;;;2.17;;
3447;SDS011;1738;49.500;17.736;2022-09-17T12:35:22;4.12;;;2.30;;
3447;SDS011;1738;49.500;17.736;2022-09-17T12:40:38;3.40;;;2.37;;
3447;SDS011;1738;49.500;17.736;2022-09-17T12:43:06;7.20;;;2.33;;
3447;SDS011;1738;49.500;17.736;2022-09-17T12:45:47;5.90;;;2.10;;
3447;SDS011;1738;49.500;17.736;2022-09-17T12:48:14;3.77;;;2.97;;
3447;SDS011;1738;49.500;17.736;2022-09-17T12:50:44;6.70;;;2.87;;
3447;SDS011;1738;49.500;17.736;2022-09-17T12:53:10;3.00;;;2.10;;
3447;SDS011;1738;49.500;17.736;2022-09-17T12:55:35;5.03;;;2.70;;
3447;SDS011;1738;49.500;17.736;2022-09-17T12:58:06;2.57;;;2.07;;
3447;SDS011;1738;49.500;17.736;2022-09-17T13:00:32;4.10;;;2.60;;
3447;SDS011;1738;49.500;17.736;2022-09-17T13:03:00;3.37;;;1.97;;
3447;SDS011;1738;49.500;17.736;2022-09-17T13:05:29;3.07;;;2.60;;
3447;SDS011;1738;49.500;17.736;2022-09-17T13:13:08;4.27;;;1.97;;
3447;SDS011;1738;49.500;17.736;2022-09-17T13:15:49;2.90;;;2.50;;
3447;SDS011;1738;49.500;17.736;2022-09-17T13:18:14;4.40;;;2.30;;
3447;SDS011;1738;49.500;17.736;2022-09-17T13:20:40;3.87;;;3.00;;
3447;SDS011;1738;49.500;17.736;2022-09-17T13:23:04;2.73;;;2.10;;
3447;SDS011;1738;49.500;17.736;2022-09-17T13:25:30;5.50;;;2.00;;
3447;SDS011;1738;49.500;17.736;2022-09-17T13:30:31;3.23;;;2.10;;
3447;SDS011;1738;49.500;17.736;2022-09-17T13:32:53;3.77;;;2.10;;
3447;SDS011;1738;49.500;17.736;2022-09-17T13:38:00;3.13;;;2.40;;
3447;SDS011;1738;49.500;17.736;2022-09-17T13:40:30;2.90;;;2.35;;
3447;SDS011;1738;49.500;17.736;2022-09-17T13:42:57;3.93;;;2.13;;
3447;SDS011;1738;49.500;17.736;2022-09-17T13:45:22;5.40;;;2.57;;
3447;SDS011;1738;49.500;17.736;2022-09-17T13:47:51;3.00;;;2.10;;
3447;SDS011;1738;49.500;17.736;2022-09-17T13:52:48;3.77;;;2.50;;
3447;SDS011;1738;49.500;17.736;2022-09-17T13:57:48;2.70;;;2.20;;
3447;SDS011;1738;49.500;17.736;2022-09-17T14:00:45;3.33;;;2.00;;
3447;SDS011;1738;49.500;17.736;2022-09-17T14:02:38;5.00;;;2.80;;
3447;SDS011;1738;49.500;17.736;2022-09-17T14:07:35;4.80;;;2.80;;
3447;SDS011;1738;49.500;17.736;2022-09-17T14:10:26;2.53;;;1.83;;
3447;SDS011;1738;49.500;17.736;2022-09-17T14:14:59;4.77;;;2.40;;
3447;SDS011;1738;49.500;17.736;2022-09-17T14:19:56;3.80;;;2.80;;
3447;SDS011;1738;49.500;17.736;2022-09-17T14:22:23;6.70;;;3.73;;
3447;SDS011;1738;49.500;17.736;2022-09-17T14:24:50;5.10;;;2.77;;
3447;SDS011;1738;49.500;17.736;2022-09-17T14:29:51;7.80;;;2.30;;
3447;SDS011;1738;49.500;17.736;2022-09-17T14:32:16;4.15;;;2.30;;
3447;SDS011;1738;49.500;17.736;2022-09-17T14:34:40;7.93;;;3.20;;
3447;SDS011;1738;49.500;17.736;2022-09-17T14:37:09;5.63;;;2.70;;
3447;SDS011;1738;49.500;17.736;2022-09-17T14:39:35;5.00;;;3.40;;
3447;SDS011;1738;49.500;17.736;2022-09-17T14:41:59;4.77;;;3.10;;
3447;SDS011;1738;49.500;17.736;2022-09-17T14:44:25;3.80;;;2.67;;
3447;SDS011;1738;49.500;17.736;2022-09-17T14:46:59;4.30;;;2.50;;
3447;SDS011;1738;49.500;17.736;2022-09-17T14:49:27;4.50;;;2.93;;
3447;SDS011;1738;49.500;17.736;2022-09-17T14:51:53;4.40;;;2.83;;
3447;SDS011;1738;49.500;17.736;2022-09-17T14:54:19;3.40;;;2.60;;
3447;SDS011;1738;49.500;17.736;2022-09-17T14:56:53;4.87;;;3.03;;
3447;SDS011;1738;49.500;17.736;2022-09-17T14:59:20;3.87;;;2.57;;
3447;SDS011;1738;49.500;17.736;2022-09-17T15:01:45;5.57;;;3.20;;
3447;SDS011;1738;49.500;17.736;2022-09-17T15:04:27;6.33;;;3.63;;
3447;SDS011;1738;49.500;17.736;2022-09-17T15:06:52;4.77;;;3.60;;
3447;SDS011;1738;49.500;17.736;2022-09-17T15:09:23;5.10;;;3.70;;
3447;SDS011;1738;49.500;17.736;2022-09-17T15:11:48;5.83;;;3.40;;
3447;SDS011;1738;49.500;17.736;2022-09-17T15:14:15;6.50;;;3.00;;
3447;SDS011;1738;49.500;17.736;2022-09-17T15:16:44;4.65;;;3.67;;
3447;SDS011;1738;49.500;17.736;2022-09-17T15:19:08;4.63;;;2.80;;
3447;SDS011;1738;49.500;17.736;2022-09-17T15:21:33;10.70;;;3.13;;
3447;SDS011;1738;49.500;17.736;2022-09-17T15:24:08;4.00;;;2.90;;
3447;SDS011;1738;49.500;17.736;2022-09-17T15:26:29;4.40;;;2.90;;
3447;SDS011;1738;49.500;17.736;2022-09-17T15:28:53;5.50;;;3.80;;
3447;SDS011;1738;49.500;17.736;2022-09-17T15:31:19;5.15;;;3.58;;
3447;SDS011;1738;49.500;17.736;2022-09-17T15:33:45;5.43;;;3.33;;
3447;SDS011;1738;49.500;17.736;2022-09-17T15:36:17;5.37;;;3.63;;
3447;SDS011;1738;49.500;17.736;2022-09-17T15:38:40;8.23;;;4.03;;
3447;SDS011;1738;49.500;17.736;2022-09-17T15:41:27;7.57;;;3.97;;
3447;SDS011;1738;49.500;17.736;2022-09-17T15:43:52;3.70;;;3.30;;
3447;SDS011;1738;49.500;17.736;2022-09-17T15:46:20;7.87;;;4.20;;
3447;SDS011;1738;49.500;17.736;2022-09-17T15:48:44;5.00;;;3.70;;
3447;SDS011;1738;49.500;17.736;2022-09-17T15:53:49;7.50;;;3.20;;